Time,TemperatureF,DewpointF,PressureIn,WindDirection,WindDirectionDegrees,WindSpeedMPH,WindSpeedGustMPH,Humidity,HourlyPrecipIn,Conditions,Clouds,dailyrainin,SoftwareType,DateUTC
2013-07-19 00:15:00,74.1,70.0,29.90,South,185,5.0,8.0,87,0.00,,---,0.00,VWS V12.07,2013-07-19 04:15:00,
2013-07-19 00:25:00,73.8,69.7,29.90,SSW,196,5.0,7.0,87,0.00,,---,0.00,VWS V12.07,2013-07-19 04:25:00,
2013-07-19 00:32:00,73.3,69.5,29.90,SSW,212,5.0,5.0,88,0.00,,---,0.00,VWS V12.07,2013-07-19 04:32:00,
2013-07-19 00:36:00,73.0,69.6,29.90,SW,217,3.0,5.0,89,0.00,,---,0.00,VWS V12.07,2013-07-19 04:36:00,
2013-07-19 00:46:00,72.8,69.7,29.91,SW,225,1.0,3.0,90,0.00,,---,0.00,VWS V12.07,2013-07-19 04:46:00,
2013-07-19 00:56:00,73.1,69.7,29.91,SW,236,3.0,5.0,89,0.00,,---,0.00,VWS V12.07,2013-07-19 04:56:00,
2013-07-19 01:06:00,73.0,69.6,29.90,SW,216,6.0,6.0,89,0.00,,---,0.00,VWS V12.07,2013-07-19 05:06:00,
2013-07-19 01:16:00,72.7,69.6,29.90,SW,232,5.0,6.0,90,0.00,,---,0.00,VWS V12.07,2013-07-19 05:16:00,
2013-07-19 01:26:00,72.8,69.7,29.90,SW,232,5.0,7.0,90,0.00,,---,0.00,VWS V12.07,2013-07-19 05:26:00,
2013-07-19 01:36:00,73.1,69.7,29.90,SW,233,4.0,6.0,89,0.00,,---,0.00,VWS V12.07,2013-07-19 05:36:00,
2013-07-19 01:46:00,72.8,69.7,29.90,WSW,238,4.0,6.0,90,0.00,,---,0.00,VWS V12.07,2013-07-19 05:46:00,
2013-07-19 01:56:00,72.9,69.8,29.90,SW,221,4.0,6.0,90,0.00,,---,0.00,VWS V12.07,2013-07-19 05:56:00,
2013-07-19 02:06:00,73.1,69.7,29.89,SSW,209,6.0,8.0,89,0.00,,---,0.00,VWS V12.07,2013-07-19 06:06:00,
2013-07-19 02:16:00,72.4,69.6,29.90,SW,223,6.0,6.0,91,0.00,,---,0.00,VWS V12.07,2013-07-19 06:16:00,
2013-07-19 02:26:00,72.1,69.7,29.90,SW,229,7.0,9.0,92,0.00,,---,0.00,VWS V12.07,2013-07-19 06:26:00,
2013-07-19 02:46:00,71.6,69.5,29.89,WSW,238,7.0,7.0,93,0.00,,---,0.00,VWS V12.07,2013-07-19 06:46:00,
2013-07-19 02:56:00,71.7,69.3,29.89,SW,225,6.0,9.0,92,0.00,,---,0.00,VWS V12.07,2013-07-19 06:56:00,
2013-07-19 03:06:00,71.5,69.4,29.89,SW,224,7.0,8.0,93,0.00,,---,0.00,VWS V12.07,2013-07-19 07:06:00,
2013-07-19 03:16:00,71.3,69.2,29.89,WSW,238,4.0,8.0,93,0.00,,---,0.00,VWS V12.07,2013-07-19 07:16:00,
2013-07-19 03:26:00,71.6,69.2,29.89,SW,221,6.0,9.0,92,0.00,,---,0.00,VWS V12.07,2013-07-19 07:26:00,
2013-07-19 03:36:00,72.5,69.4,29.88,SW,215,7.0,10.0,90,0.00,,---,0.00,VWS V12.07,2013-07-19 07:36:00,
2013-07-19 03:46:00,72.5,69.1,29.88,SSW,213,5.0,8.0,89,0.00,,---,0.00,VWS V12.07,2013-07-19 07:46:00,
2013-07-19 03:57:00,72.4,69.0,29.88,SSW,212,4.0,10.0,89,0.00,,---,0.00,VWS V12.07,2013-07-19 07:57:00,
2013-07-19 04:06:00,72.1,69.0,29.87,SW,232,5.0,7.0,90,0.00,,---,0.00,VWS V12.07,2013-07-19 08:06:00,
2013-07-19 04:17:00,71.7,68.9,29.87,SW,231,6.0,7.0,91,0.00,,---,0.00,VWS V12.07,2013-07-19 08:17:00,
2013-07-19 04:26:00,71.8,68.7,29.87,SW,232,7.0,8.0,90,0.00,,---,0.00,VWS V12.07,2013-07-19 08:26:00,
2013-07-19 04:36:00,71.8,68.7,29.87,SW,232,8.0,8.0,90,0.00,,---,0.00,VWS V12.07,2013-07-19 08:36:00,
2013-07-19 04:46:00,71.5,68.7,29.86,SW,219,7.0,8.0,91,0.00,,---,0.00,VWS V12.07,2013-07-19 08:46:00,
2013-07-19 04:56:00,71.5,68.7,29.86,WSW,239,6.0,9.0,91,0.00,,---,0.00,VWS V12.07,2013-07-19 08:56:00,
2013-07-19 05:06:00,71.7,68.9,29.86,SW,227,9.0,11.0,91,0.00,,---,0.00,VWS V12.07,2013-07-19 09:06:00,
2013-07-19 05:16:00,71.6,68.8,29.86,SW,232,7.0,8.0,91,0.00,,---,0.00,VWS V12.07,2013-07-19 09:16:00,
2013-07-19 05:26:00,71.8,68.7,29.86,SW,225,6.0,10.0,90,0.00,,---,0.00,VWS V12.07,2013-07-19 09:26:00,
2013-07-19 05:36:00,71.8,68.7,29.86,SW,227,6.0,9.0,90,0.00,,---,0.00,VWS V12.07,2013-07-19 09:36:00,
2013-07-19 05:46:00,71.9,68.8,29.86,SW,230,8.0,9.0,90,0.00,,---,0.00,VWS V12.07,2013-07-19 09:46:00,
2013-07-19 05:56:00,71.9,68.8,29.86,SW,217,6.0,9.0,90,0.00,,---,0.00,VWS V12.07,2013-07-19 09:56:00,
2013-07-19 06:06:00,72.0,68.9,29.86,SW,232,7.0,8.0,90,0.00,,---,0.00,VWS V12.07,2013-07-19 10:06:00,
2013-07-19 06:16:00,72.0,68.9,29.86,SW,228,9.0,9.0,90,0.00,,---,0.00,VWS V12.07,2013-07-19 10:16:00,
2013-07-19 06:26:00,72.4,69.0,29.86,SW,227,10.0,10.0,89,0.00,,---,0.00,VWS V12.07,2013-07-19 10:26:00,
2013-07-19 06:36:00,72.7,69.3,29.86,SW,229,7.0,8.0,89,0.00,,---,0.00,VWS V12.07,2013-07-19 10:36:00,
2013-07-19 06:46:00,72.9,69.5,29.86,SW,232,7.0,8.0,89,0.00,,---,0.00,VWS V12.07,2013-07-19 10:46:00,
2013-07-19 06:56:00,73.0,69.6,29.86,SW,221,6.0,8.0,89,0.00,,---,0.00,VWS V12.07,2013-07-19 10:56:00,
2013-07-19 07:07:00,73.5,69.7,29.85,SW,215,6.0,8.0,88,0.00,,---,0.00,VWS V12.07,2013-07-19 11:07:00,
2013-07-19 07:15:00,73.6,69.5,29.85,SW,227,5.0,8.0,87,0.00,,---,0.00,VWS V12.07,2013-07-19 11:15:00,
2013-07-19 07:25:00,74.0,70.2,29.85,SW,214,3.0,8.0,88,0.00,,---,0.00,VWS V12.07,2013-07-19 11:25:00,
2013-07-19 07:45:00,74.9,70.1,29.85,SSW,213,6.0,9.0,85,0.00,,---,0.00,VWS V12.07,2013-07-19 11:45:00,
2013-07-19 08:05:00,76.1,70.9,29.85,SSW,198,9.0,11.0,84,0.00,,---,0.00,VWS V12.07,2013-07-19 12:05:00,
2013-07-19 08:15:00,76.5,71.0,29.85,SSW,209,8.0,13.0,83,0.00,,---,0.00,VWS V12.07,2013-07-19 12:15:00,
2013-07-19 08:24:00,77.3,71.4,29.85,SSW,213,7.0,12.0,82,0.00,,---,0.00,VWS V12.07,2013-07-19 12:24:00,
2013-07-19 08:36:00,77.4,71.1,29.85,SSW,210,8.0,13.0,81,0.00,,---,0.00,VWS V12.07,2013-07-19 12:36:00,
2013-07-19 08:46:00,78.0,71.7,29.85,SSW,200,7.0,9.0,81,0.00,,---,0.00,VWS V12.07,2013-07-19 12:46:00,
2013-07-19 08:56:00,78.0,71.7,29.85,SSW,208,3.0,11.0,81,0.00,,---,0.00,VWS V12.07,2013-07-19 12:56:00,
2013-07-19 09:06:00,78.8,71.7,29.85,SW,228,10.0,11.0,79,0.00,,---,0.00,VWS V12.07,2013-07-19 13:06:00,
2013-07-19 09:15:00,79.4,72.7,29.85,SW,224,6.0,11.0,80,0.00,,---,0.00,VWS V12.07,2013-07-19 13:15:00,
2013-07-19 09:25:00,79.3,72.6,29.85,WSW,254,6.0,9.0,80,0.00,,---,0.00,VWS V12.07,2013-07-19 13:25:00,
2013-07-19 09:35:00,79.6,72.9,29.85,SSW,199,7.0,10.0,80,0.00,,---,0.00,VWS V12.07,2013-07-19 13:35:00,
2013-07-19 09:45:00,79.9,73.2,29.84,SSW,199,7.0,14.0,80,0.00,,---,0.00,VWS V12.07,2013-07-19 13:45:00,
2013-07-19 09:55:00,80.3,73.2,29.84,SSW,211,9.0,14.0,79,0.00,,---,0.00,VWS V12.07,2013-07-19 13:55:00,
2013-07-19 10:05:00,80.9,73.8,29.83,SW,215,8.0,13.0,79,0.00,,---,0.00,VWS V12.07,2013-07-19 14:05:00,
2013-07-19 10:15:00,82.2,74.3,29.83,WSW,241,10.0,13.0,77,0.00,,---,0.00,VWS V12.07,2013-07-19 14:15:00,
2013-07-19 10:25:00,82.5,72.2,29.83,SW,225,10.0,15.0,71,0.00,,---,0.00,VWS V12.07,2013-07-19 14:25:00,
2013-07-19 10:35:00,83.2,72.0,29.83,WSW,253,7.0,12.0,69,0.00,,---,0.00,VWS V12.07,2013-07-19 14:35:00,
2013-07-19 10:45:00,84.0,72.3,29.83,WSW,240,10.0,15.0,68,0.00,,---,0.00,VWS V12.07,2013-07-19 14:45:00,
2013-07-19 10:55:00,85.0,72.4,29.83,SW,224,13.0,21.0,66,0.00,,---,0.00,VWS V12.07,2013-07-19 14:55:00,
2013-07-19 11:05:00,85.6,71.6,29.82,WNW,285,12.0,18.0,63,0.00,,---,0.00,VWS V12.07,2013-07-19 15:05:00,
2013-07-19 11:15:00,85.6,71.6,29.82,West,265,17.0,19.0,63,0.00,,---,0.00,VWS V12.07,2013-07-19 15:15:00,
2013-07-19 11:25:00,85.8,71.3,29.82,WSW,249,15.0,21.0,62,0.00,,---,0.00,VWS V12.07,2013-07-19 15:25:00,
2013-07-19 11:35:00,86.3,72.7,29.82,WSW,258,9.0,14.0,64,0.00,,---,0.00,VWS V12.07,2013-07-19 15:35:00,
2013-07-19 11:45:00,86.6,72.5,29.81,WSW,254,12.0,17.0,63,0.00,,---,0.00,VWS V12.07,2013-07-19 15:45:00,
2013-07-19 11:51:00,86.9,72.8,29.81,SW,231,8.0,17.0,63,0.00,,---,0.00,VWS V12.07,2013-07-19 15:51:00,
2013-07-19 12:05:00,87.1,72.0,29.80,West,279,18.0,19.0,61,0.00,,---,0.00,VWS V12.07,2013-07-19 16:05:00,
2013-07-19 12:15:00,87.0,71.9,29.80,West,265,9.0,22.0,61,0.00,,---,0.00,VWS V12.07,2013-07-19 16:15:00,
2013-07-19 12:26:00,86.7,71.7,29.80,West,274,13.0,17.0,61,0.00,,---,0.00,VWS V12.07,2013-07-19 16:26:00,
2013-07-19 12:35:00,86.9,72.8,29.80,West,260,10.0,15.0,63,0.00,,---,0.00,VWS V12.07,2013-07-19 16:35:00,
2013-07-19 12:46:00,86.8,71.3,29.79,WSW,238,15.0,18.0,60,0.00,,---,0.00,VWS V12.07,2013-07-19 16:46:00,
2013-07-19 12:56:00,87.6,71.5,29.79,West,259,9.0,18.0,59,0.00,,---,0.00,VWS V12.07,2013-07-19 16:56:00,
2013-07-19 13:06:00,87.4,71.8,29.79,WSW,237,12.0,19.0,60,0.00,,---,0.00,VWS V12.07,2013-07-19 17:06:00,
2013-07-19 13:16:00,85.9,72.3,29.79,West,271,11.0,11.0,64,0.00,,---,0.00,VWS V12.07,2013-07-19 17:16:00,
2013-07-19 13:26:00,86.7,71.2,29.79,SW,232,10.0,17.0,60,0.00,,---,0.00,VWS V12.07,2013-07-19 17:26:00,
2013-07-19 13:36:00,87.4,70.8,29.78,WSW,247,9.0,17.0,58,0.00,,---,0.00,VWS V12.07,2013-07-19 17:36:00,
2013-07-19 13:46:00,87.2,72.1,29.77,SW,234,16.0,16.0,61,0.00,,---,0.00,VWS V12.07,2013-07-19 17:46:00,
2013-07-19 13:56:00,86.1,71.1,29.77,SW,234,8.0,16.0,61,0.00,,---,0.00,VWS V12.07,2013-07-19 17:56:00,
2013-07-19 14:06:00,86.1,72.0,29.77,SW,218,11.0,18.0,63,0.00,,---,0.00,VWS V12.07,2013-07-19 18:06:00,
2013-07-19 14:16:00,87.1,71.5,29.76,WSW,250,7.0,12.0,60,0.00,,---,0.00,VWS V12.07,2013-07-19 18:16:00,
2013-07-19 14:27:00,87.7,72.1,29.76,WSW,252,15.0,19.0,60,0.00,,---,0.00,VWS V12.07,2013-07-19 18:27:00,
2013-07-19 14:35:00,87.7,72.1,29.75,SW,236,19.0,19.0,60,0.00,,---,0.00,VWS V12.07,2013-07-19 18:35:00,
2013-07-19 14:42:00,87.1,71.5,29.75,West,262,13.0,19.0,60,0.00,,---,0.00,VWS V12.07,2013-07-19 18:42:00,
2013-07-19 15:07:00,88.8,72.6,29.73,SSW,205,9.0,19.0,59,0.00,,---,0.00,VWS V12.07,2013-07-19 19:07:00,
2013-07-19 15:27:00,88.2,73.1,29.73,WSW,244,9.0,15.0,61,0.00,,---,0.00,VWS V12.07,2013-07-19 19:27:00,
2013-07-19 15:47:00,87.6,72.5,29.72,WSW,250,8.0,19.0,61,0.00,,---,0.00,VWS V12.07,2013-07-19 19:47:00,
2013-07-19 16:08:00,88.2,73.1,29.72,SW,231,15.0,21.0,61,0.00,,---,0.00,VWS V12.07,2013-07-19 20:08:00,
2013-07-19 16:27:00,87.1,71.5,29.70,SW,216,10.0,19.0,60,0.00,,---,0.00,VWS V12.07,2013-07-19 20:27:00,
2013-07-19 16:47:00,87.3,73.2,29.69,SW,235,11.0,12.0,63,0.00,,---,0.00,VWS V12.07,2013-07-19 20:47:00,
2013-07-19 17:08:00,86.8,73.2,29.69,WSW,240,11.0,17.0,64,0.00,,---,0.00,VWS V12.07,2013-07-19 21:08:00,
2013-07-19 17:28:00,86.4,73.7,29.69,SW,223,10.0,15.0,66,0.00,,---,0.00,VWS V12.07,2013-07-19 21:28:00,
2013-07-19 17:36:00,85.9,73.7,29.69,WSW,239,8.0,14.0,67,0.00,,---,0.00,VWS V12.07,2013-07-19 21:36:00,
2013-07-19 17:46:00,85.6,72.9,29.69,West,261,13.0,18.0,66,0.00,,---,0.00,VWS V12.07,2013-07-19 21:46:00,
2013-07-19 17:56:00,85.7,73.9,29.69,SW,234,13.0,19.0,68,0.00,,---,0.00,VWS V12.07,2013-07-19 21:56:00,
2013-07-19 18:06:00,85.7,73.9,29.69,WSW,246,14.0,16.0,68,0.00,,---,0.00,VWS V12.07,2013-07-19 22:06:00,
2013-07-19 18:16:00,86.2,74.4,29.69,SW,231,8.0,10.0,68,0.00,,---,0.00,VWS V12.07,2013-07-19 22:16:00,
2013-07-19 18:26:00,85.5,74.2,29.69,SSW,212,8.0,13.0,69,0.00,,---,0.00,VWS V12.07,2013-07-19 22:26:00,
2013-07-19 18:36:00,84.7,74.7,29.69,SSW,209,7.0,11.0,72,0.00,,---,0.00,VWS V12.07,2013-07-19 22:36:00,
2013-07-19 18:46:00,85.2,74.7,29.69,WSW,238,8.0,9.0,71,0.00,,---,0.00,VWS V12.07,2013-07-19 22:46:00,
2013-07-19 18:56:00,84.9,74.9,29.69,WSW,242,8.0,10.0,72,0.00,,---,0.00,VWS V12.07,2013-07-19 22:56:00,
2013-07-19 19:06:00,84.6,74.2,29.69,SW,236,5.0,10.0,71,0.00,,---,0.00,VWS V12.07,2013-07-19 23:06:00,
2013-07-19 19:17:00,84.4,74.4,29.69,SW,233,10.0,10.0,72,0.00,,---,0.00,VWS V12.07,2013-07-19 23:17:00,
2013-07-19 19:26:00,84.3,73.9,29.69,SW,222,6.0,12.0,71,0.00,,---,0.00,VWS V12.07,2013-07-19 23:26:00,
2013-07-19 19:36:00,83.9,73.9,29.69,SW,224,10.0,11.0,72,0.00,,---,0.00,VWS V12.07,2013-07-19 23:36:00,
2013-07-19 19:46:00,83.8,73.0,29.70,WSW,239,10.0,10.0,70,0.00,,---,0.00,VWS V12.07,2013-07-19 23:46:00,
2013-07-19 19:56:00,83.6,72.8,29.70,WSW,242,8.0,14.0,70,0.00,,---,0.00,VWS V12.07,2013-07-19 23:56:00,
2013-07-19 20:06:00,83.2,72.4,29.70,SW,217,6.0,12.0,70,0.00,,---,0.00,VWS V12.07,2013-07-20 00:06:00,
2013-07-19 20:16:00,82.7,72.3,29.70,SW,227,8.0,10.0,71,0.00,,---,0.00,VWS V12.07,2013-07-20 00:16:00,
2013-07-19 20:26:00,82.4,72.5,29.70,WSW,240,12.0,12.0,72,0.00,,---,0.00,VWS V12.07,2013-07-20 00:26:00,
2013-07-19 20:35:00,82.0,72.1,29.70,SW,221,10.0,15.0,72,0.00,,---,0.00,VWS V12.07,2013-07-20 00:35:00,
2013-07-19 20:45:00,81.8,72.3,29.70,SW,229,10.0,15.0,73,0.00,,---,0.00,VWS V12.07,2013-07-20 00:45:00,
2013-07-19 20:55:00,81.6,72.1,29.70,SW,225,10.0,15.0,73,0.00,,---,0.00,VWS V12.07,2013-07-20 00:55:00,
2013-07-19 21:07:00,81.3,71.8,29.70,WSW,251,12.0,14.0,73,0.00,,---,0.00,VWS V12.07,2013-07-20 01:07:00,
2013-07-19 21:16:00,81.5,71.2,29.70,SW,236,11.0,13.0,71,0.00,,---,0.00,VWS V12.07,2013-07-20 01:16:00,
2013-07-19 21:26:00,81.2,70.9,29.70,WSW,244,11.0,15.0,71,0.00,,---,0.00,VWS V12.07,2013-07-20 01:26:00,
2013-07-19 21:36:00,81.1,71.2,29.70,WSW,250,11.0,16.0,72,0.00,,---,0.00,VWS V12.07,2013-07-20 01:36:00,
2013-07-19 21:55:00,81.2,70.5,29.70,West,261,13.0,16.0,70,0.00,,---,0.00,VWS V12.07,2013-07-20 01:55:00,
2013-07-19 22:05:00,81.3,70.6,29.71,SW,235,9.0,18.0,70,0.00,,---,0.00,VWS V12.07,2013-07-20 02:05:00,
2013-07-19 22:15:00,81.0,70.3,29.70,WSW,245,14.0,18.0,70,0.00,,---,0.00,VWS V12.07,2013-07-20 02:15:00,
2013-07-19 22:25:00,80.9,70.2,29.70,SW,229,14.0,17.0,70,0.00,,---,0.00,VWS V12.07,2013-07-20 02:25:00,
2013-07-19 22:35:00,80.8,70.1,29.71,WSW,245,13.0,17.0,70,0.00,,---,0.00,VWS V12.07,2013-07-20 02:35:00,
2013-07-19 22:45:00,80.6,69.9,29.72,WSW,256,16.0,16.0,70,0.00,,---,0.00,VWS V12.07,2013-07-20 02:45:00,
2013-07-19 22:55:00,80.5,69.8,29.72,WSW,243,12.0,18.0,70,0.00,,---,0.00,VWS V12.07,2013-07-20 02:55:00,
2013-07-19 23:05:00,80.3,70.1,29.71,WSW,240,10.0,17.0,71,0.00,,---,0.00,VWS V12.07,2013-07-20 03:05:00,
2013-07-19 23:15:00,79.9,68.4,29.76,NNW,348,12.0,22.0,68,0.00,,---,0.00,VWS V12.07,2013-07-20 03:15:00,
2013-07-19 23:25:00,77.7,64.6,29.76,West,273,11.0,27.0,64,0.00,,---,0.00,VWS V12.07,2013-07-20 03:25:00,
2013-07-19 23:35:00,75.5,64.6,29.75,NNW,331,5.0,12.0,69,0.00,,---,0.00,VWS V12.07,2013-07-20 03:35:00,
2013-07-19 23:58:00,73.5,64.7,29.75,SW,236,3.0,7.0,74,0.00,,---,0.00,VWS V12.07,2013-07-20 03:58:00,